Time;durP1;ratioP1;P1;durP2;ratioP2;P2;SDS_P1;SDS_P2;PMS_P1;PMS_P2;Temp;Humidity;BMP_temperature;BMP_pressure;BME280_temperature;BME280_humidity;BME280_pressure;Samples;Min_cycle;Max_cycle;Signal;HPM_P1;HPM_P2
2022/03/23 00:02:27;;;;;;;14.70;8.30;;;;;;;3.12;57.56;97242.63;10330803;28;96982;-64
2022/03/23 00:07:30;;;;;;;13.43;8.30;;;;;;;3.30;57.03;97238.31;10333861;28;96970;-65
2022/03/23 00:12:33;;;;;;;12.05;7.97;;;;;;;3.41;56.29;97236.84;10333292;28;96993;-64
2022/03/23 00:17:39;;;;;;;15.75;8.77;;;;;;;3.23;57.89;97243.75;10326671;28;96913;-64
2022/03/23 00:22:43;;;;;;;12.63;8.13;;;;;;;3.10;56.36;97247.91;10334540;28;96912;-64
2022/03/23 00:27:45;;;;;;;13.30;8.68;;;;;;;3.00;56.61;97247.50;10327101;28;97217;-64
2022/03/23 00:32:50;;;;;;;16.45;8.48;;;;;;;3.10;56.58;97247.03;10332953;28;97862;-64
2022/03/23 00:37:52;;;;;;;14.77;9.70;;;;;;;2.82;59.21;97249.25;10332565;28;96784;-64
2022/03/23 00:43:01;;;;;;;15.98;9.95;;;;;;;2.64;59.34;97261.28;10335760;28;99886;-64
2022/03/23 00:48:06;;;;;;;16.60;10.35;;;;;;;2.49;60.42;97267.16;10325527;28;97575;-64
2022/03/23 00:53:09;;;;;;;15.27;9.40;;;;;;;2.60;59.93;97270.09;10325497;28;96922;-64
2022/03/23 00:58:11;;;;;;;16.92;10.30;;;;;;;2.36;61.36;97258.38;10321749;28;98966;-64
2022/03/23 01:03:16;;;;;;;17.35;9.35;;;;;;;2.32;61.04;97252.50;10321130;28;98474;-64
2022/03/23 01:08:19;;;;;;;14.60;9.47;;;;;;;2.47;60.09;97253.53;10325295;28;96837;-64
2022/03/23 01:13:22;;;;;;;15.07;9.25;;;;;;;2.54;59.45;97257.47;10329507;28;97162;-64
2022/03/23 01:18:26;;;;;;;15.25;9.88;;;;;;;2.44;59.39;97256.22;10327672;28;98013;-64
2022/03/23 01:23:29;;;;;;;11.60;8.23;;;;;;;2.55;59.07;97246.25;10329470;28;96789;-64
2022/03/23 01:28:32;;;;;;;14.30;9.82;;;;;;;2.47;59.03;97248.34;10330455;28;96806;-64
2022/03/23 01:33:36;;;;;;;14.00;9.40;;;;;;;2.23;60.13;97253.78;10329644;28;96936;-63
2022/03/23 01:38:40;;;;;;;13.07;9.73;;;;;;;1.96;61.61;97242.16;10328681;28;96882;-64
2022/03/23 01:43:43;;;;;;;15.05;9.23;;;;;;;2.01;61.99;97245.34;10325718;28;96966;-64
2022/03/23 01:48:48;;;;;;;17.55;9.52;;;;;;;2.13;61.26;97245.63;10331955;28;96775;-64
2022/03/23 01:53:51;;;;;;;15.73;9.20;;;;;;;2.34;59.63;97244.69;10342824;28;96741;-63
2022/03/23 01:58:55;;;;;;;14.70;9.38;;;;;;;2.27;59.89;97242.41;10330901;28;96769;-64
2022/03/23 02:03:59;;;;;;;16.60;10.00;;;;;;;2.19;60.49;97239.34;10335840;28;96904;-64
2022/03/23 02:09:02;;;;;;;15.60;9.13;;;;;;;2.05;61.52;97244.31;10318182;28;97067;-63
2022/03/23 02:14:05;;;;;;;12.68;8.27;;;;;;;2.07;60.48;97245.06;10322932;28;97010;-63
2022/03/23 02:19:10;;;;;;;12.57;8.48;;;;;;;2.09;60.75;97240.66;10333888;28;96859;-64
2022/03/23 02:24:15;;;;;;;13.90;8.87;;;;;;;2.01;60.74;97240.19;10328019;28;96839;-64
2022/03/23 02:29:20;;;;;;;13.35;8.57;;;;;;;1.79;61.39;97237.75;10325013;28;100465;-64
2022/03/23 02:34:23;;;;;;;13.93;9.43;;;;;;;1.86;60.94;97234.84;10331100;28;96948;-64
2022/03/23 02:39:32;;;;;;;16.20;8.85;;;;;;;1.83;60.60;97234.13;10327973;28;96846;-63
2022/03/23 02:44:35;;;;;;;10.25;8.23;;;;;;;1.98;59.58;97232.63;10327885;28;97724;-63
2022/03/23 02:49:39;;;;;;;12.75;8.80;;;;;;;2.21;59.18;97245.25;10333667;28;96950;-63
2022/03/23 03:06:04;;;;;;;14.23;8.43;;;;;;;1.79;61.44;97253.22;10342954;28;97603;-64
2022/03/23 03:11:09;;;;;;;13.03;8.80;;;;;;;1.63;61.81;97253.06;10335263;28;96960;-64
2022/03/23 03:16:12;;;;;;;12.00;8.30;;;;;;;1.56;61.33;97248.19;10331302;28;97268;-64
2022/03/23 03:21:16;;;;;;;12.48;8.10;;;;;;;1.42;61.67;97258.25;10330737;28;99964;-63
2022/03/23 03:26:21;;;;;;;13.02;8.18;;;;;;;1.45;61.52;97257.28;10327717;28;96819;-63
2022/03/23 03:31:24;;;;;;;11.90;8.10;;;;;;;1.39;61.14;97258.38;10336554;28;97216;-64
2022/03/23 03:36:27;;;;;;;13.52;8.30;;;;;;;1.63;60.17;97261.63;10335866;28;96853;-63
2022/03/23 03:41:32;;;;;;;9.32;7.63;;;;;;;1.51;60.00;97260.41;10332915;28;96848;-63
2022/03/23 03:46:34;;;;;;;15.03;8.17;;;;;;;1.42;60.35;97273.69;10321070;28;96838;-64
2022/03/23 03:51:37;;;;;;;13.50;7.85;;;;;;;1.28;61.15;97270.84;10332452;28;97106;-64
2022/03/23 03:56:41;;;;;;;13.98;8.13;;;;;;;1.12;61.64;97266.38;10330133;28;102687;-64
2022/03/23 04:01:45;;;;;;;15.30;8.70;;;;;;;1.37;60.27;97267.91;10336851;28;96887;-64
2022/03/23 04:06:48;;;;;;;14.20;8.73;;;;;;;1.50;60.38;97270.78;10337850;28;96798;-64
2022/03/23 04:11:52;;;;;;;15.18;8.15;;;;;;;1.51;60.14;97273.28;10337856;28;98727;-64
2022/03/23 04:16:55;;;;;;;12.00;7.75;;;;;;;1.48;59.50;97275.16;10332346;28;102338;-63
2022/03/23 04:21:59;;;;;;;14.77;8.38;;;;;;;1.77;59.94;97273.06;10334452;28;98302;-64
2022/03/23 04:27:03;;;;;;;14.00;7.93;;;;;;;1.70;59.71;97281.06;10336829;28;97091;-64
2022/03/23 04:32:07;;;;;;;14.60;8.73;;;;;;;1.53;60.36;97280.97;10337312;28;97080;-64
2022/03/23 04:37:10;;;;;;;10.70;7.78;;;;;;;1.43;60.24;97287.41;10336918;28;96719;-64
2022/03/23 04:42:14;;;;;;;15.82;9.40;;;;;;;1.15;61.96;97286.81;10336083;28;96976;-63
2022/03/23 04:47:17;;;;;;;16.95;9.18;;;;;;;0.87;62.72;97294.84;10336943;28;96936;-64
2022/03/23 04:52:21;;;;;;;14.93;7.47;;;;;;;0.85;61.84;97294.06;10338525;28;96864;-64
2022/03/23 04:57:25;;;;;;;14.93;8.10;;;;;;;0.99;61.82;97293.50;10335440;28;100173;-63
2022/03/23 05:02:28;;;;;;;15.13;9.30;;;;;;;0.93;61.49;97301.47;10336783;28;97036;-64
2022/03/23 05:07:31;;;;;;;15.63;8.93;;;;;;;0.77;62.38;97296.94;10337339;28;96740;-64
2022/03/23 05:12:36;;;;;;;14.15;8.80;;;;;;;0.72;61.85;97306.59;10334786;28;96862;-64
2022/03/23 05:17:39;;;;;;;12.40;8.32;;;;;;;0.70;61.84;97310.94;10336358;28;100124;-64
2022/03/23 05:22:42;;;;;;;15.95;9.52;;;;;;;0.53;63.24;97313.34;10345599;28;98293;-63
2022/03/23 05:27:46;;;;;;;16.25;9.63;;;;;;;0.17;64.61;97313.88;10332053;28;97524;-63
2022/03/23 05:32:49;;;;;;;14.02;8.63;;;;;;;0.21;63.59;97318.00;10329982;28;96846;-63
2022/03/23 05:37:52;;;;;;;14.45;9.10;;;;;;;0.26;63.64;97321.22;10314504;28;96864;-63
2022/03/23 05:42:56;;;;;;;19.17;10.35;;;;;;;0.20;64.85;97321.44;10332940;28;96758;-64
2022/03/23 05:47:59;;;;;;;13.52;8.88;;;;;;;0.21;63.32;97325.69;10328415;28;97185;-63
2022/03/23 05:53:02;;;;;;;12.77;7.97;;;;;;;0.20;63.39;97321.44;10326327;28;97844;-63
2022/03/23 05:58:07;;;;;;;15.93;10.02;;;;;;;0.16;64.35;97330.16;10325761;28;96948;-63
2022/03/23 06:03:10;;;;;;;19.67;11.00;;;;;;;0.13;63.40;97327.72;10319072;28;98387;-63
2022/03/23 06:08:13;;;;;;;15.90;9.25;;;;;;;0.11;64.30;97335.47;10322062;28;97001;-63
2022/03/23 06:13:17;;;;;;;17.58;9.15;;;;;;;0.17;64.51;97331.84;10333505;28;97019;-63
2022/03/23 06:18:21;;;;;;;16.40;9.00;;;;;;;0.31;64.00;97339.06;10321252;28;102375;-63
2022/03/23 06:23:23;;;;;;;13.40;8.27;;;;;;;0.46;62.67;97343.59;10327521;28;97197;-63
2022/03/23 06:28:35;;;;;;;13.27;8.25;;;;;;;0.59;62.12;97347.38;10322178;28;98417;-64
2022/03/23 06:33:39;;;;;;;16.23;8.70;;;;;;;0.73;61.45;97351.16;10326024;28;97862;-64
2022/03/23 06:38:42;;;;;;;15.38;7.75;;;;;;;0.79;61.15;97344.03;10326647;28;100900;-63
2022/03/23 06:43:46;;;;;;;15.15;8.77;;;;;;;0.90;60.59;97347.94;10323301;28;96929;-64
2022/03/23 06:48:49;;;;;;;14.60;9.25;;;;;;;0.97;60.44;97344.22;10321406;28;98107;-63
2022/03/23 06:53:52;;;;;;;13.02;9.48;;;;;;;1.05;59.92;97342.13;10330671;28;96896;-63
2022/03/23 06:58:57;;;;;;;15.05;9.85;;;;;;;1.07;59.99;97344.66;10319797;28;97423;-63
2022/03/23 07:03:59;;;;;;;15.35;9.45;;;;;;;1.16;59.98;97350.28;10333074;28;96914;-63
2022/03/23 07:19:40;;;;;;;12.80;7.80;;;;;;;1.57;58.63;97364.91;10368677;28;97205;-64
2022/03/23 07:24:43;;;;;;;12.97;8.23;;;;;;;1.73;58.98;97365.13;10364693;28;97118;-64
2022/03/23 07:29:46;;;;;;;13.30;9.20;;;;;;;1.79;57.97;97364.84;10361998;28;97195;-64
2022/03/23 07:34:51;;;;;;;14.27;8.88;;;;;;;1.89;57.76;97370.44;10358713;28;96934;-64
2022/03/23 07:39:53;;;;;;;15.20;9.03;;;;;;;1.92;57.60;97371.13;10360824;28;96923;-64
2022/03/23 07:45:01;;;;;;;13.25;8.18;;;;;;;2.10;57.84;97368.66;10366416;28;102225;-64
2022/03/23 07:50:08;;;;;;;11.30;7.45;;;;;;;2.26;57.67;97364.47;10354909;28;97016;-64
2022/03/23 07:55:11;;;;;;;14.20;8.80;;;;;;;2.38;58.07;97364.84;10360369;28;96820;-64
2022/03/23 08:00:15;;;;;;;15.25;7.70;;;;;;;2.53;57.63;97369.31;10367150;28;96856;-64
2022/03/23 08:05:19;;;;;;;9.77;7.25;;;;;;;2.74;57.81;97370.06;10367972;28;97400;-64
2022/03/23 08:10:22;;;;;;;13.45;7.68;;;;;;;2.95;58.13;97372.53;10365424;28;96948;-64
2022/03/23 08:15:28;;;;;;;18.90;8.35;;;;;;;3.13;57.98;97370.81;10365792;28;96860;-64
2022/03/23 08:20:35;;;;;;;11.13;7.63;;;;;;;3.54;58.17;97380.88;10368336;28;96815;-64
2022/03/23 08:25:41;;;;;;;10.43;7.30;;;;;;;3.86;58.52;97378.41;10346421;28;97081;-64
2022/03/23 08:30:44;;;;;;;14.68;7.22;;;;;;;3.93;58.28;97380.59;10339416;28;97147;-64
2022/03/23 08:35:48;;;;;;;10.88;7.15;;;;;;;4.09;58.06;97377.22;10338923;28;96941;-64
2022/03/23 08:40:51;;;;;;;15.25;7.40;;;;;;;4.16;57.64;97365.66;10339645;28;99919;-64
2022/03/23 08:45:54;;;;;;;10.15;6.78;;;;;;;4.16;57.08;97368.22;10339623;28;96837;-64
2022/03/23 08:50:59;;;;;;;8.75;6.45;;;;;;;4.37;56.99;97358.53;10319772;28;98172;-64
2022/03/23 08:56:01;;;;;;;12.32;7.05;;;;;;;4.49;56.89;97354.44;10311149;28;97338;-64
2022/03/23 09:01:04;;;;;;;10.60;6.43;;;;;;;4.63;56.78;97356.25;10327226;28;97208;-64
2022/03/23 09:06:09;;;;;;;12.75;7.63;;;;;;;4.82;57.39;97345.75;10338494;28;96740;-64
2022/03/23 09:11:12;;;;;;;13.32;7.22;;;;;;;5.21;56.68;97347.03;10338920;28;96780;-64
2022/03/23 09:16:15;;;;;;;9.38;6.22;;;;;;;5.43;57.00;97336.28;10325369;28;96730;-64
2022/03/23 09:21:20;;;;;;;9.95;6.30;;;;;;;5.57;56.19;97336.31;10329431;28;96979;-64
2022/03/23 09:26:23;;;;;;;11.00;6.33;;;;;;;5.70;55.62;97332.06;10328949;28;96970;-64
2022/03/23 09:31:26;;;;;;;10.43;6.15;;;;;;;5.90;55.65;97340.41;10324079;28;96950;-64
2022/03/23 09:41:52;;;;;;;9.50;6.70;;;;;;;6.30;55.54;97332.00;10336498;28;96719;-64
2022/03/23 09:46:56;;;;;;;10.13;6.60;;;;;;;6.52;55.16;97326.28;10321515;28;97023;-64
2022/03/23 09:52:01;;;;;;;9.23;6.18;;;;;;;6.78;54.74;97324.63;10322610;28;96840;-65
2022/03/23 09:57:06;;;;;;;;;;;;;;;6.97;54.37;97320.00;10333467;28;96942;-64
2022/03/23 10:02:48;;;;;;;12.10;7.03;;;;;;;7.22;53.94;97315.78;10316468;28;97112;-64
2022/03/23 10:08:00;;;;;;;10.20;6.80;;;;;;;7.46;53.80;97323.75;10322978;28;96701;-65
2022/03/23 10:13:47;;;;;;;10.52;7.20;;;;;;;7.59;53.26;97318.53;10309334;28;96836;-64
2022/03/23 10:18:52;;;;;;;10.05;6.85;;;;;;;7.77;52.61;97300.84;10290195;28;97176;-64
2022/03/23 10:24:30;;;;;;;13.82;7.35;;;;;;;7.92;51.74;97299.81;10296089;28;96896;-64
2022/03/23 10:29:41;;;;;;;11.40;7.28;;;;;;;8.10;51.73;97289.06;10291327;28;98331;-65
2022/03/23 10:34:47;;;;;;;9.60;7.05;;;;;;;8.34;51.41;97295.19;10288944;28;97570;-64
2022/03/23 10:39:50;;;;;;;12.32;8.00;;;;;;;8.53;51.45;97296.47;10290710;28;96982;-64
2022/03/23 10:45:08;;;;;;;14.32;8.35;;;;;;;8.73;50.84;97290.69;10288967;28;97459;-64
2022/03/23 10:50:15;;;;;;;15.20;7.90;;;;;;;8.97;50.67;97281.19;10290568;28;96866;-65
2022/03/23 10:55:19;;;;;;;12.20;8.00;;;;;;;9.10;50.20;97272.34;10317592;28;97072;-64
2022/03/23 11:00:30;;;;;;;11.63;8.25;;;;;;;9.30;50.05;97264.84;10328082;28;96998;-64
2022/03/23 11:05:36;;;;;;;13.82;8.27;;;;;;;9.42;49.75;97261.34;10332668;28;96936;-65
2022/03/23 11:16:06;;;;;;;15.13;9.77;;;;;;;9.78;48.46;97246.44;10326242;28;98320;-64
2022/03/23 11:21:09;;;;;;;16.58;10.25;;;;;;;9.95;46.89;97236.50;10314198;28;96830;-65
2022/03/23 11:26:12;;;;;;;16.25;9.75;;;;;;;10.19;47.47;97231.97;10323283;28;96871;-64
2022/03/23 11:31:17;;;;;;;14.82;9.95;;;;;;;10.33;47.20;97230.03;10314221;28;98455;-64
2022/03/23 11:36:22;;;;;;;14.43;10.15;;;;;;;10.46;47.04;97222.91;10317419;28;96945;-65
2022/03/23 11:41:25;;;;;;;13.65;9.75;;;;;;;10.60;46.33;97217.38;10332577;28;97200;-64
2022/03/23 11:46:30;;;;;;;16.33;10.10;;;;;;;10.88;46.00;97209.91;10319181;28;96853;-64
2022/03/23 11:52:03;;;;;;;17.23;11.18;;;;;;;11.06;45.20;97207.56;10324409;28;97181;-65
2022/03/23 11:57:06;;;;;;;14.82;10.65;;;;;;;11.22;45.32;97201.88;10313564;28;96928;-65
2022/03/23 12:02:10;;;;;;;18.50;11.32;;;;;;;11.43;45.04;97198.47;10324438;28;96873;-64
2022/03/23 12:07:13;;;;;;;16.67;11.03;;;;;;;11.47;44.35;97189.41;10343127;28;97295;-65
2022/03/23 12:12:30;;;;;;;17.50;11.98;;;;;;;11.57;43.75;97184.22;10336986;28;96858;-65
2022/03/23 12:17:34;;;;;;;18.98;11.98;;;;;;;11.67;43.35;97175.44;10335425;28;96865;-64
2022/03/23 12:23:16;;;;;;;18.13;12.20;;;;;;;11.78;43.08;97166.69;10343681;28;101785;-65
2022/03/23 12:28:27;;;;;;;17.33;12.05;;;;;;;11.90;42.70;97152.53;10325415;28;96942;-65
2022/03/23 12:33:33;;;;;;;17.60;11.73;;;;;;;12.12;42.60;97153.25;10338550;28;98032;-65
2022/03/23 12:38:36;;;;;;;16.58;11.10;;;;;;;12.34;42.22;97152.19;10338051;28;96992;-65
2022/03/23 12:43:42;;;;;;;19.83;11.95;;;;;;;12.57;41.42;97144.88;10337321;28;97254;-65
2022/03/23 12:59:50;;;;;;;15.48;10.48;;;;;;;13.03;40.13;97117.16;10326451;28;97391;-65
2022/03/23 13:04:56;;;;;;;14.45;10.20;;;;;;;13.18;39.51;97114.88;10324253;28;96765;-65
2022/03/23 13:10:09;;;;;;;15.73;11.27;;;;;;;13.34;39.13;97105.59;10337477;28;96789;-65
2022/03/23 13:15:14;;;;;;;16.50;11.20;;;;;;;13.44;38.43;97099.31;10329239;28;97101;-65
2022/03/23 13:20:19;;;;;;;15.95;11.73;;;;;;;13.70;38.10;97113.59;10331147;28;99101;-65
2022/03/23 13:25:23;;;;;;;17.42;11.48;;;;;;;13.91;38.15;97101.03;10335281;28;97437;-64
2022/03/23 13:30:26;;;;;;;17.73;12.52;;;;;;;14.23;37.79;97094.47;10336909;28;98592;-64
2022/03/23 13:35:30;;;;;;;16.50;11.27;;;;;;;14.50;37.48;97090.94;10336282;28;96840;-64
2022/03/23 13:45:57;;;;;;;18.75;12.70;;;;;;;15.55;36.65;97090.13;10336472;28;96865;-64
2022/03/23 13:51:03;;;;;;;15.23;11.80;;;;;;;16.05;35.92;97071.75;10336279;28;99943;-64
2022/03/23 13:56:06;;;;;;;16.02;12.25;;;;;;;16.60;35.00;97067.66;10336194;28;97093;-65
2022/03/23 14:01:09;;;;;;;16.88;11.70;;;;;;;17.12;34.45;97068.31;10337117;28;96879;-65
2022/03/23 14:06:15;;;;;;;16.17;12.50;;;;;;;17.62;33.43;97059.22;10334977;28;98429;-65
2022/03/23 14:11:19;;;;;;;14.68;11.27;;;;;;;17.91;33.16;97047.22;10335162;28;100115;-65
2022/03/23 14:16:24;;;;;;;17.77;12.77;;;;;;;17.34;33.16;97046.44;10333418;28;97276;-65
2022/03/23 14:21:30;;;;;;;16.88;12.02;;;;;;;18.22;33.03;97044.56;10326340;28;96967;-65
2022/03/23 14:26:36;;;;;;;17.92;12.18;;;;;;;18.99;33.08;97037.47;10326507;28;96902;-65
2022/03/23 14:31:43;;;;;;;14.93;12.75;;;;;;;19.23;32.33;97044.34;10320585;28;97204;-65
2022/03/23 14:36:47;;;;;;;16.90;12.27;;;;;;;18.58;31.40;97028.03;10318587;28;97614;-65
2022/03/23 14:41:58;;;;;;;16.95;13.30;;;;;;;18.73;31.41;97025.44;10333143;28;96790;-66
2022/03/23 14:47:01;;;;;;;15.05;12.60;;;;;;;19.68;31.38;97028.38;10316007;28;96903;-65
2022/03/23 14:52:18;;;;;;;15.70;11.98;;;;;;;20.34;30.58;97020.34;10330570;28;96825;-65
2022/03/23 14:57:21;;;;;;;18.98;13.57;;;;;;;19.62;30.69;97025.47;10322633;28;97048;-65
2022/03/23 15:02:24;;;;;;;15.55;12.90;;;;;;;19.35;30.59;97024.34;10304849;28;97334;-65
2022/03/23 15:18:09;;;;;;;16.35;12.23;;;;;;;20.38;30.15;97005.69;10330675;28;97129;-65
2022/03/23 15:23:13;;;;;;;15.93;11.68;;;;;;;20.92;28.68;96998.97;10333334;28;97247;-65
2022/03/23 15:28:16;;;;;;;13.98;11.07;;;;;;;21.40;29.39;97001.69;10320000;28;96958;-65
2022/03/23 15:33:20;;;;;;;14.27;10.80;;;;;;;21.65;28.22;96993.22;10332964;28;96837;-65
2022/03/23 15:38:26;;;;;;;15.17;11.57;;;;;;;21.40;28.33;96993.72;10335881;28;97903;-65
2022/03/23 15:43:30;;;;;;;13.88;11.07;;;;;;;21.94;28.02;96991.28;10338909;28;96853;-65
2022/03/23 15:48:34;;;;;;;15.33;12.00;;;;;;;21.97;27.80;96988.19;10340312;28;99815;-65
2022/03/23 15:53:41;;;;;;;16.33;11.85;;;;;;;22.15;27.77;96991.09;10340113;28;96907;-65
2022/03/23 15:58:49;;;;;;;14.65;11.27;;;;;;;22.22;27.38;96989.28;10339235;28;97784;-65
2022/03/23 16:03:54;;;;;;;15.37;10.87;;;;;;;22.55;27.02;96985.03;10328325;28;98174;-65
2022/03/23 16:08:58;;;;;;;15.35;11.77;;;;;;;22.43;27.02;96995.44;10334439;28;97340;-65
2022/03/23 16:14:01;;;;;;;15.35;12.30;;;;;;;21.99;26.80;96994.16;10339784;28;96898;-66
2022/03/23 16:19:04;;;;;;;15.75;12.10;;;;;;;20.48;28.03;96992.09;10307586;28;96846;-65
2022/03/23 16:24:09;;;;;;;12.93;11.20;;;;;;;20.89;29.06;96988.72;10314948;28;97034;-65
2022/03/23 16:29:12;;;;;;;15.20;12.00;;;;;;;21.42;28.84;96993.53;10328351;28;96774;-65
2022/03/23 16:34:15;;;;;;;14.73;11.07;;;;;;;22.20;28.34;96993.16;10323288;28;96766;-65
2022/03/23 16:39:19;;;;;;;15.27;12.05;;;;;;;22.63;27.09;96988.28;10314317;28;96772;-65
2022/03/23 16:44:22;;;;;;;14.50;12.48;;;;;;;22.81;26.19;96992.97;10328963;28;96921;-65
2022/03/23 16:49:25;;;;;;;15.30;12.18;;;;;;;23.01;27.24;96986.78;10307004;28;97488;-66
2022/03/23 16:54:29;;;;;;;14.05;11.77;;;;;;;22.98;27.37;96988.03;10320556;28;98336;-65
2022/03/23 16:59:33;;;;;;;14.23;11.60;;;;;;;22.59;27.03;96987.06;10329216;28;98155;-65
2022/03/23 17:15:23;;;;;;;12.27;10.50;;;;;;;19.77;29.70;96996.28;10336095;28;100102;-65
2022/03/23 17:20:28;;;;;;;12.57;9.60;;;;;;;18.42;31.92;96991.97;10336740;28;96927;-65
2022/03/23 17:25:33;;;;;;;10.85;8.52;;;;;;;17.82;32.56;97003.28;10322577;28;96755;-65
2022/03/23 17:30:36;;;;;;;12.15;9.25;;;;;;;17.29;33.70;97001.25;10337910;28;96852;-65
2022/03/23 17:35:39;;;;;;;12.00;9.45;;;;;;;16.51;34.61;97005.34;10329251;28;97328;-65
2022/03/23 17:40:43;;;;;;;18.15;8.57;;;;;;;15.97;36.10;97011.09;10332766;28;96986;-65
2022/03/23 17:45:46;;;;;;;16.73;9.02;;;;;;;15.49;37.06;97009.97;10339107;28;97228;-65
2022/03/23 17:50:50;;;;;;;12.10;8.13;;;;;;;14.72;38.50;97010.75;10327840;28;96943;-66
2022/03/23 17:55:54;;;;;;;13.00;8.30;;;;;;;13.81;40.40;97008.31;10317196;28;97195;-65
2022/03/23 18:00:57;;;;;;;10.68;7.35;;;;;;;13.34;41.66;97004.09;10328530;28;98403;-69
2022/03/23 18:06:00;;;;;;;12.80;8.70;;;;;;;13.52;40.38;97004.13;10319237;28;98776;-66
2022/03/23 18:11:06;;;;;;;15.20;8.75;;;;;;;13.14;41.39;97013.00;10331055;28;98944;-66
2022/03/23 18:16:09;;;;;;;10.95;8.60;;;;;;;12.98;41.55;97011.81;10348355;28;98038;-65
2022/03/23 18:21:12;;;;;;;13.48;8.35;;;;;;;12.72;42.08;97022.09;10353549;28;97747;-65
2022/03/23 18:26:16;;;;;;;11.88;8.05;;;;;;;12.46;42.36;97025.31;10336638;28;97312;-66
2022/03/23 18:31:20;;;;;;;9.35;7.45;;;;;;;12.35;42.45;97022.81;10332092;28;97139;-65
2022/03/23 18:36:23;;;;;;;10.73;7.95;;;;;;;12.17;42.68;97037.59;10319025;28;102601;-65
2022/03/23 18:41:28;;;;;;;12.98;8.98;;;;;;;12.08;42.62;97036.63;10324231;28;98329;-66
2022/03/23 18:46:31;;;;;;;15.63;9.65;;;;;;;11.96;42.07;97043.78;10321104;28;98739;-65
2022/03/23 18:51:34;;;;;;;15.13;10.50;;;;;;;11.83;42.80;97043.22;10325882;28;98633;-65
2022/03/23 18:56:43;;;;;;;11.35;7.97;;;;;;;11.65;43.68;97046.50;10330962;28;99155;-66
2022/03/23 19:01:46;;;;;;;13.52;9.45;;;;;;;11.17;44.98;97047.97;10327936;28;96872;-65
2022/03/23 19:06:50;;;;;;;13.77;9.80;;;;;;;10.79;45.86;97046.00;10329395;28;98226;-65
2022/03/23 19:11:55;;;;;;;13.07;9.02;;;;;;;10.48;46.38;97045.09;10327202;28;98691;-65
2022/03/23 19:16:58;;;;;;;12.98;9.30;;;;;;;10.52;46.17;97052.56;10326406;28;96862;-65
2022/03/23 19:22:01;;;;;;;12.13;9.10;;;;;;;10.16;46.56;97052.03;10326086;28;98425;-65
2022/03/23 19:27:06;;;;;;;16.90;11.20;;;;;;;9.94;46.70;97052.97;10322132;28;100222;-65
2022/03/23 19:32:09;;;;;;;14.60;9.10;;;;;;;9.97;46.35;97057.09;10315840;28;98450;-65
2022/03/23 19:37:13;;;;;;;13.35;9.73;;;;;;;10.08;45.85;97058.81;10326652;28;96897;-65
2022/03/23 19:42:17;;;;;;;13.38;8.38;;;;;;;10.05;45.56;97059.91;10325516;28;97263;-65
2022/03/23 19:47:20;;;;;;;14.23;9.83;;;;;;;9.95;46.18;97061.63;10318219;28;96936;-65
2022/03/23 19:52:23;;;;;;;12.70;8.68;;;;;;;9.79;46.16;97060.22;10322303;28;97283;-65
2022/03/23 19:57:27;;;;;;;10.52;8.18;;;;;;;9.71;46.48;97062.63;10323119;28;97618;-66
2022/03/23 20:02:30;;;;;;;11.02;7.78;;;;;;;9.53;46.73;97067.53;10317323;28;98415;-65
2022/03/23 20:07:34;;;;;;;9.52;7.07;;;;;;;9.07;47.58;97069.28;10326719;28;100892;-65
2022/03/23 20:12:38;;;;;;;10.65;6.70;;;;;;;8.62;48.83;97069.25;10318559;28;96913;-65
2022/03/23 20:17:42;;;;;;;12.73;8.85;;;;;;;8.95;47.89;97078.06;10322277;28;98543;-65
2022/03/23 20:22:45;;;;;;;17.85;13.05;;;;;;;8.94;49.08;97080.78;10324116;28;98509;-65
2022/03/23 20:27:49;;;;;;;22.38;14.40;;;;;;;8.28;50.80;97082.16;10328947;28;97012;-66
2022/03/23 20:32:52;;;;;;;22.80;13.57;;;;;;;7.91;51.93;97084.84;10321288;28;98296;-64
2022/03/23 20:37:56;;;;;;;14.13;9.75;;;;;;;7.74;52.04;97080.81;10330991;28;97521;-65
2022/03/23 20:43:00;;;;;;;10.43;7.45;;;;;;;7.72;51.22;97079.28;10331799;28;103128;-65
2022/03/23 20:48:04;;;;;;;11.57;7.70;;;;;;;7.60;51.20;97075.78;10326028;28;98238;-65
2022/03/23 20:53:09;;;;;;;12.97;7.67;;;;;;;7.59;50.92;97071.50;10322417;28;97489;-65
2022/03/23 20:58:16;;;;;;;13.82;8.35;;;;;;;7.51;51.08;97074.66;10314027;28;96808;-64
2022/03/23 21:03:22;;;;;;;11.98;7.35;;;;;;;7.27;51.11;97077.22;10323893;28;99325;-65
2022/03/23 21:08:33;;;;;;;10.85;6.82;;;;;;;7.21;51.01;97081.06;10321772;28;96894;-65
2022/03/23 21:13:40;;;;;;;13.85;9.63;;;;;;;7.29;50.48;97072.72;10322622;28;99027;-66
2022/03/23 21:18:44;;;;;;;10.30;8.00;;;;;;;7.09;50.64;97079.28;10326666;28;98163;-65
2022/03/23 21:23:47;;;;;;;13.15;7.60;;;;;;;6.86;50.71;97083.44;10322975;28;99927;-65
2022/03/23 21:28:52;;;;;;;10.38;7.32;;;;;;;6.77;50.45;97084.88;10324135;28;98146;-65
2022/03/23 21:33:55;;;;;;;18.52;11.10;;;;;;;6.85;49.82;97080.00;10334307;28;98157;-65
2022/03/23 21:38:57;;;;;;;11.20;8.10;;;;;;;6.53;51.14;97084.75;10339323;28;98664;-65
2022/03/23 21:44:02;;;;;;;14.93;10.20;;;;;;;6.26;51.82;97082.25;10333202;28;99053;-65
2022/03/23 21:49:04;;;;;;;13.57;8.63;;;;;;;5.95;52.41;97088.53;10319908;28;98204;-65
2022/03/23 21:54:08;;;;;;;14.82;10.80;;;;;;;5.94;52.43;97094.69;10324802;28;99024;-64
2022/03/23 21:59:12;;;;;;;15.18;9.82;;;;;;;5.85;53.11;97088.31;10325463;28;97779;-65
2022/03/23 22:04:16;;;;;;;11.60;8.23;;;;;;;5.74;52.82;97088.16;10328840;28;98082;-64
2022/03/23 22:09:20;;;;;;;17.42;10.23;;;;;;;5.69;52.90;97099.66;10328553;28;97542;-65
2022/03/23 22:14:24;;;;;;;15.07;9.35;;;;;;;5.68;52.64;97097.97;10322133;28;96866;-65
2022/03/23 22:19:27;;;;;;;12.02;6.40;;;;;;;5.47;52.70;97094.16;10326362;28;98582;-65
2022/03/23 22:24:30;;;;;;;7.65;5.50;;;;;;;5.26;53.13;97096.31;10325324;28;98572;-65
2022/03/23 22:29:35;;;;;;;5.30;4.00;;;;;;;5.16;52.34;97096.03;10322584;28;96890;-65
2022/03/23 22:34:38;;;;;;;7.30;4.07;;;;;;;5.18;51.41;97099.34;10323754;28;96897;-64
2022/03/23 22:39:41;;;;;;;6.75;3.95;;;;;;;5.25;51.18;97095.47;10323414;28;98838;-65
2022/03/23 22:44:46;;;;;;;8.48;4.40;;;;;;;5.18;51.29;97088.97;10318782;28;98944;-65
2022/03/23 22:49:49;;;;;;;7.85;4.30;;;;;;;5.24;51.12;97099.00;10321996;28;98849;-65
2022/03/23 22:54:53;;;;;;;10.30;6.63;;;;;;;5.19;51.52;97101.03;10317288;28;98582;-64
2022/03/23 22:59:57;;;;;;;7.65;5.00;;;;;;;4.71;52.19;97100.44;10322775;28;98519;-66
2022/03/23 23:05:00;;;;;;;7.97;4.95;;;;;;;4.53;51.97;97103.19;10312185;28;96866;-65
2022/03/23 23:10:03;;;;;;;8.35;5.50;;;;;;;4.58;51.63;97095.16;10314590;28;98437;-65
2022/03/23 23:15:09;;;;;;;9.60;5.13;;;;;;;4.52;51.90;97098.91;10318422;28;99011;-65
2022/03/23 23:20:13;;;;;;;7.43;4.75;;;;;;;4.48;52.21;97089.69;10318442;28;96818;-64
2022/03/23 23:25:16;;;;;;;10.57;6.97;;;;;;;4.07;53.21;97090.28;10321572;28;98242;-65
2022/03/23 23:30:20;;;;;;;12.00;6.50;;;;;;;3.97;53.76;97086.56;10318984;28;98446;-65
2022/03/23 23:35:24;;;;;;;7.47;4.88;;;;;;;3.88;53.55;97084.47;10319266;28;98898;-65
2022/03/23 23:40:26;;;;;;;6.93;4.97;;;;;;;3.88;53.46;97090.47;10326866;28;100448;-64
2022/03/23 23:45:31;;;;;;;7.30;4.57;;;;;;;3.88;52.92;97080.13;10318619;28;98431;-65
2022/03/23 23:50:35;;;;;;;7.82;5.00;;;;;;;3.80;52.99;97085.75;10324649;28;96828;-65
2022/03/23 23:55:38;;;;;;;7.60;4.60;;;;;;;3.79;52.67;97086.66;10321030;28;96781;-66
